Main page
METAR-TAF:

METAR-TAF

Airports :

Mackinac Island Airport

Mackinac Island, Michigan, United States

latitude: 45-51-54N, longitude: 084-38-14W, elevation: 741 ft

Current weather observation

The report was made 13 minutes ago, at 19:55 UTC
Wind 3 mph from the South/Southeast
Temperature 39°F
Humidity 32%
Pressure 30.31 in. Hg
Visibility: 10 miles
Clear sky

METAR: KMCD 241955Z AUTO 16003KT 10SM CLR 04/M11 A3031 RMK AO2 T00361106

Time: 16:08 (20:08 UTC)


TAF: missing

Weather observations and forecasts of more than 4000 airports (METAR and TAF reports).

The available stations are represented by yellow and red dots on the map.

Hover mouse over dot to see the name of the station.

Then click to see weather observations and forecasts.

To change the map : click on the green buttons with a black cross to zoom in, on the green button with a dash to zoom out, or on the green arrows for adjacent maps.


METAR-TAF: